This is the latest recevied weather packets stored in our database for station/object KB3AWQ. If no packets are shown the sender has not sent any weather packets the latest 10 day(s).
| Time | Temp. | Humidity | Pressure | Rain* | Wind** | Luminosity | Snow |
|---|---|---|---|---|---|---|---|
| 1777240766 | 15.56° C | 58% | 1019.8 hPa | 0 mm | - | 82 W/m² | - |
| 1777240467 | 15.56° C | 59% | 1019.8 hPa | 0 mm | - | 58 W/m² | - |
| 1777240167 | 15.56° C | 60% | 1019.8 hPa | 0 mm | - | 84 W/m² | - |
| 1777239866 | 15.56° C | 59% | 1019.7 hPa | 0 mm | - | 206 W/m² | - |
| 1777239567 | 15.56° C | 61% | 1019.7 hPa | 0 mm | - | 53 W/m² | - |
| 1777239266 | 15.56° C | 59% | 1019.8 hPa | 0 mm | - | 55 W/m² | - |
| 1777238966 | 15.56° C | 60% | 1019.7 hPa | 0 mm | - | 55 W/m² | - |
| 1777238667 | 15.56° C | 60% | 1019.7 hPa | 0 mm | - | 72 W/m² | - |
| 1777238366 | 15.56° C | 61% | 1019.7 hPa | 0 mm | - | 72 W/m² | - |
| 1777238067 | 15.56° C | 60% | 1019.7 hPa | 0 mm | - | 91 W/m² | - |
| 1777237766 | 15.56° C | 60% | 1019.7 hPa | 0 mm | - | 134 W/m² | - |
| 1777237466 | 15.56° C | 59% | 1019.7 hPa | 0 mm | - | 106 W/m² | - |
| 1777237166 | 15.56° C | 61% | 1019.7 hPa | 0 mm | - | 179 W/m² | - |
| 1777236867 | 15.56° C | 60% | 1019.7 hPa | 0 mm | - | 177 W/m² | - |
| 1777236566 | 15.56° C | 60% | 1019.7 hPa | 0 mm | - | 162 W/m² | - |
| 1777236268 | 15.56° C | 59% | 1019.6 hPa | 0 mm | - | 357 W/m² | - |
| 1777235966 | 15° C | 61% | 1019.7 hPa | 0 mm | - | 263 W/m² | - |
| 1777235667 | 15° C | 62% | 1019.8 hPa | 0 mm | - | 95 W/m² | - |
| 1777235367 | 15.56° C | 62% | 1019.8 hPa | 0 mm | - | 103 W/m² | - |
| 1777235066 | 15.56° C | 61% | 1019.8 hPa | 0 mm | - | 474 W/m² | - |
| 1777234766 | 15.56° C | 61% | 1019.8 hPa | 0 mm | - | 599 W/m² | - |
| 1777234466 | 16.11° C | 60% | 1020 hPa | 0 mm | - | 348 W/m² | - |
| 1777234166 | 16.11° C | 63% | 1020 hPa | 0 mm | - | 645 W/m² | - |
| 1777233866 | 15.56° C | 61% | 1020.1 hPa | 0 mm | - | 649 W/m² | - |
| 1777233567 | 15.56° C | 59% | 1020.1 hPa | 0 mm | - | 666 W/m² | - |
* Rain latest hour (hover to see other rain measurements)
** Current wind speed in m/s (hover to see current wind gust speed)